createdAt,value
2023-05-03T00:00:13.924Z,14.43
2023-05-03T00:02:45.044Z,15.77
2023-05-03T00:05:15.272Z,17.67
2023-05-03T00:07:45.062Z,13.63
2023-05-03T00:10:16.027Z,14.07
2023-05-03T00:12:45.564Z,14.57
2023-05-03T00:15:15.817Z,13.80
2023-05-03T00:17:44.566Z,17.17
2023-05-03T00:20:13.501Z,16.47
2023-05-03T00:22:42.305Z,15.00
2023-05-03T00:25:11.490Z,13.30
2023-05-03T00:27:40.225Z,16.57
2023-05-03T00:30:10.924Z,18.77
2023-05-03T00:32:41.116Z,20.57
2023-05-03T00:35:10.205Z,16.03
2023-05-03T00:37:39.181Z,16.03
2023-05-03T00:40:09.849Z,17.40
2023-05-03T00:42:38.702Z,17.27
2023-05-03T00:45:08.506Z,17.97
2023-05-03T00:47:38.205Z,16.67
2023-05-03T00:50:11.909Z,17.30
2023-05-03T00:52:41.934Z,19.30
2023-05-03T00:55:11.646Z,16.47
2023-05-03T00:57:40.922Z,18.77
2023-05-03T01:00:10.869Z,18.87
2023-05-03T01:02:39.786Z,16.93
2023-05-03T01:05:11.308Z,20.67
2023-05-03T01:07:49.698Z,17.67
2023-05-03T01:10:28.174Z,23.27
2023-05-03T01:13:03.307Z,20.93
2023-05-03T01:15:45.676Z,21.70
2023-05-03T01:18:17.697Z,20.00
2023-05-03T01:20:50.363Z,22.40
2023-05-03T01:23:31.652Z,22.20
2023-05-03T01:26:02.006Z,20.97
2023-05-03T01:28:30.555Z,19.57
2023-05-03T01:31:00.562Z,21.93
2023-05-03T01:33:38.642Z,25.87
2023-05-03T01:36:15.038Z,25.93
2023-05-03T01:38:44.483Z,27.33
2023-05-03T01:41:18.039Z,20.07
2023-05-03T01:43:48.132Z,23.47
2023-05-03T01:46:17.175Z,29.37
2023-05-03T01:48:46.642Z,24.60
2023-05-03T01:51:15.499Z,23.17
2023-05-03T01:53:45.006Z,26.80
2023-05-03T01:56:15.328Z,25.37
2023-05-03T01:58:44.113Z,24.17
2023-05-03T02:01:12.884Z,22.13
2023-05-03T02:03:41.826Z,20.10
2023-05-03T02:06:11.689Z,29.57
2023-05-03T02:08:40.468Z,25.80
2023-05-03T02:11:09.312Z,28.33
2023-05-03T02:13:40.133Z,26.40
2023-05-03T02:16:09.691Z,21.40
2023-05-03T02:18:38.454Z,23.80
2023-05-03T02:21:07.293Z,26.30
2023-05-03T02:23:36.248Z,26.03
2023-05-03T02:26:04.948Z,24.90
2023-05-03T02:28:34.555Z,23.97
2023-05-03T02:31:06.849Z,22.43
2023-05-03T02:33:35.858Z,25.83
2023-05-03T02:36:04.675Z,25.47
2023-05-03T02:38:33.451Z,25.37
2023-05-03T02:41:02.288Z,24.20
2023-05-03T02:43:32.294Z,21.43
2023-05-03T02:46:01.005Z,23.50
2023-05-03T02:48:31.246Z,23.63
2023-05-03T02:50:59.921Z,22.90
2023-05-03T02:53:28.553Z,23.43
2023-05-03T02:56:01.546Z,25.87
2023-05-03T02:58:30.427Z,22.97
2023-05-03T03:01:00.585Z,26.70
2023-05-03T03:03:33.822Z,26.93
2023-05-03T03:06:02.570Z,22.57
2023-05-03T03:08:31.367Z,23.53
2023-05-03T03:11:03.819Z,23.57
2023-05-03T03:13:32.670Z,22.60
2023-05-03T03:16:02.700Z,27.97
2023-05-03T03:18:34.435Z,29.33
2023-05-03T03:21:04.995Z,23.00
2023-05-03T03:23:34.933Z,23.97
2023-05-03T03:26:03.737Z,28.17
2023-05-03T03:28:32.503Z,20.60
2023-05-03T03:31:03.744Z,24.30
2023-05-03T03:33:34.278Z,22.67
2023-05-03T03:36:10.363Z,23.00
2023-05-03T03:38:42.728Z,28.67
2023-05-03T03:41:13.254Z,24.03
2023-05-03T03:43:42.388Z,25.03
2023-05-03T03:46:17.737Z,22.67
2023-05-03T03:48:49.680Z,21.30
2023-05-03T03:51:18.266Z,24.47
2023-05-03T03:53:49.227Z,19.07
2023-05-03T03:56:18.389Z,22.10
2023-05-03T03:58:48.721Z,24.63
2023-05-03T04:01:17.909Z,22.43
2023-05-03T04:03:47.904Z,25.60
2023-05-03T04:06:19.066Z,24.03
2023-05-03T04:08:48.732Z,24.27
2023-05-03T04:11:18.621Z,25.63
2023-05-03T04:13:54.662Z,25.27
2023-05-03T04:16:23.864Z,23.17
2023-05-03T04:18:53.224Z,19.37
2023-05-03T04:21:37.041Z,17.27
2023-05-03T04:24:08.121Z,18.23
2023-05-03T04:26:36.793Z,16.87
2023-05-03T04:29:13.012Z,17.23
2023-05-03T04:31:42.857Z,18.63
2023-05-03T04:34:15.096Z,18.87
2023-05-03T04:36:49.125Z,21.13
2023-05-03T04:39:18.837Z,22.27
2023-05-03T04:41:49.458Z,18.23
2023-05-03T04:44:18.264Z,19.57
2023-05-03T04:46:51.051Z,15.70
2023-05-03T04:49:20.258Z,21.07
2023-05-03T04:51:50.446Z,17.23
2023-05-03T04:54:19.897Z,15.20
2023-05-03T04:56:49.793Z,13.60
2023-05-03T04:59:20.376Z,15.37
2023-05-03T05:01:49.402Z,14.40
2023-05-03T05:04:19.107Z,16.00
2023-05-03T05:06:54.894Z,13.27
2023-05-03T05:09:31.297Z,17.43
2023-05-03T05:12:02.354Z,17.40
2023-05-03T05:14:36.957Z,14.23
2023-05-03T05:17:06.352Z,14.37
2023-05-03T05:19:35.920Z,19.33
2023-05-03T05:22:06.483Z,16.10
2023-05-03T05:24:45.644Z,17.90
2023-05-03T05:27:17.786Z,18.03
2023-05-03T05:29:47.206Z,13.97
2023-05-03T05:32:20.609Z,16.47
2023-05-03T05:34:55.497Z,14.13
2023-05-03T05:37:28.687Z,14.23
2023-05-03T05:40:01.460Z,16.03
2023-05-03T05:42:36.212Z,14.97
2023-05-03T05:45:07.999Z,13.10
2023-05-03T05:47:37.870Z,18.60
2023-05-03T05:50:16.835Z,12.90
2023-05-03T05:52:48.162Z,15.37
2023-05-03T05:55:17.034Z,17.47
2023-05-03T05:57:47.612Z,16.87
2023-05-03T06:00:19.440Z,12.60
2023-05-03T06:02:49.290Z,14.10
2023-05-03T06:05:22.483Z,15.00
2023-05-03T06:07:52.553Z,16.67
2023-05-03T06:10:21.499Z,14.00
2023-05-03T06:12:53.545Z,10.07
2023-05-03T06:15:27.310Z,13.27
2023-05-03T06:17:56.197Z,12.87
2023-05-03T06:20:25.482Z,11.30
2023-05-03T06:22:56.519Z,13.83
2023-05-03T06:25:25.141Z,11.37
2023-05-03T06:27:53.915Z,10.43
2023-05-03T06:30:28.776Z,12.00
2023-05-03T06:33:03.285Z,11.87
2023-05-03T06:35:33.319Z,14.13
2023-05-03T06:38:03.552Z,14.77
2023-05-03T06:40:32.425Z,11.03
2023-05-03T06:43:01.054Z,13.57
2023-05-03T06:45:59.073Z,12.43
2023-05-03T06:48:28.251Z,39.63
2023-05-03T06:50:57.983Z,17.10
2023-05-03T06:53:29.074Z,13.53
2023-05-03T06:55:57.781Z,10.40
2023-05-03T06:58:26.620Z,12.17
2023-05-03T07:00:55.361Z,10.17
2023-05-03T07:03:24.953Z,11.03
2023-05-03T07:05:53.790Z,12.73
2023-05-03T07:08:22.487Z,12.30
2023-05-03T07:10:52.472Z,10.00
2023-05-03T07:13:21.251Z,12.23
2023-05-03T07:15:50.081Z,10.73
2023-05-03T07:18:18.755Z,11.47
2023-05-03T07:20:47.822Z,9.17
2023-05-03T07:23:17.163Z,9.53
2023-05-03T07:25:47.447Z,9.30
2023-05-03T07:28:18.353Z,8.20
2023-05-03T07:30:47.421Z,10.25
2023-05-03T07:33:16.613Z,9.43
2023-05-03T07:35:47.602Z,10.38
2023-05-03T07:38:16.785Z,8.50
2023-05-03T07:40:45.558Z,10.80
2023-05-03T07:43:16.770Z,8.23
2023-05-03T07:45:47.218Z,8.50
2023-05-03T07:48:15.987Z,8.98
2023-05-03T07:50:45.315Z,8.93
2023-05-03T07:53:14.451Z,8.80
2023-05-03T07:55:43.362Z,10.52
2023-05-03T07:58:12.248Z,11.13
2023-05-03T08:00:41.023Z,10.30
2023-05-03T08:03:11.324Z,9.65
2023-05-03T08:05:40.603Z,10.13
2023-05-03T08:08:09.445Z,9.85
2023-05-03T08:10:38.978Z,10.77
2023-05-03T08:13:08.272Z,7.80
2023-05-03T08:15:37.029Z,9.55
2023-05-03T08:18:06.216Z,9.97
2023-05-03T08:20:38.076Z,8.95
2023-05-03T08:23:06.865Z,9.05
2023-05-03T08:25:37.328Z,8.43
2023-05-03T08:28:07.303Z,12.63
2023-05-03T08:30:36.232Z,10.32
2023-05-03T08:33:05.206Z,11.53
2023-05-03T08:35:35.502Z,8.50
2023-05-03T08:38:05.233Z,7.20
2023-05-03T08:40:37.547Z,9.47
2023-05-03T08:43:10.296Z,8.87
2023-05-03T08:45:38.949Z,9.47
2023-05-03T08:48:08.702Z,11.83
2023-05-03T08:50:42.584Z,5.73
2023-05-03T08:53:11.985Z,7.40
2023-05-03T08:55:40.859Z,9.57
2023-05-03T08:58:12.723Z,11.87
2023-05-03T09:00:45.160Z,8.60
2023-05-03T09:03:14.644Z,7.00
2023-05-03T09:05:46.588Z,8.13
2023-05-03T09:08:17.267Z,7.53
2023-05-03T09:10:46.043Z,7.77
2023-05-03T09:13:14.824Z,8.03
2023-05-03T09:15:46.908Z,6.83
2023-05-03T09:18:17.596Z,8.67
2023-05-03T09:20:53.184Z,8.73
2023-05-03T09:23:31.427Z,7.23
2023-05-03T09:26:01.181Z,8.73
2023-05-03T09:28:30.109Z,6.25
2023-05-03T09:31:06.883Z,6.47
2023-05-03T09:33:35.880Z,8.63
2023-05-03T09:36:07.102Z,7.32
2023-05-03T09:38:37.437Z,7.93
2023-05-03T09:41:07.151Z,7.57
2023-05-03T09:43:36.604Z,6.40
2023-05-03T09:46:12.943Z,5.60
2023-05-03T09:48:42.072Z,6.25
2023-05-03T09:51:13.436Z,8.25
2023-05-03T09:53:42.915Z,6.68
2023-05-03T09:56:13.746Z,8.82
2023-05-03T09:58:44.059Z,7.47
2023-05-03T10:01:13.640Z,8.45
2023-05-03T10:03:44.172Z,8.35
2023-05-03T10:06:32.230Z,6.00
2023-05-03T10:09:06.049Z,5.28
2023-05-03T10:11:36.992Z,7.63
2023-05-03T10:14:07.795Z,8.82
2023-05-03T10:16:40.335Z,6.25
2023-05-03T10:19:14.882Z,6.90
2023-05-03T10:21:55.486Z,6.63
2023-05-03T10:24:24.238Z,7.57
2023-05-03T10:26:53.308Z,5.68
2023-05-03T10:29:53.911Z,6.80
2023-05-03T10:32:36.371Z,6.68
2023-05-03T10:35:08.460Z,5.13
2023-05-03T10:37:39.982Z,7.55
2023-05-03T10:40:11.601Z,5.13
2023-05-03T10:42:41.295Z,7.28
2023-05-03T10:45:12.730Z,5.38
2023-05-03T10:47:41.762Z,6.78
2023-05-03T10:50:27.467Z,5.30
2023-05-03T10:52:57.600Z,6.53
2023-05-03T10:55:26.822Z,5.43
2023-05-03T10:57:57.887Z,5.53
2023-05-03T11:00:32.333Z,4.90
2023-05-03T11:03:23.827Z,5.35
2023-05-03T11:05:53.823Z,4.72
2023-05-03T11:08:28.047Z,6.95
2023-05-03T11:11:01.129Z,5.63
2023-05-03T11:13:29.731Z,4.47
2023-05-03T11:15:58.634Z,4.82
2023-05-03T11:18:28.685Z,5.05
2023-05-03T11:20:57.488Z,5.45
2023-05-03T11:23:29.431Z,5.97
2023-05-03T11:25:58.818Z,5.03
2023-05-03T11:28:27.582Z,6.25
2023-05-03T11:30:56.852Z,5.80
2023-05-03T11:33:25.715Z,4.78
2023-05-03T11:35:57.453Z,4.68
2023-05-03T11:38:27.999Z,4.20
2023-05-03T11:40:57.079Z,6.32
2023-05-03T11:43:27.033Z,4.63
2023-05-03T11:45:59.596Z,4.72
2023-05-03T11:48:32.483Z,3.67
2023-05-03T11:51:01.861Z,4.60
2023-05-03T11:53:32.058Z,6.18
2023-05-03T11:56:03.354Z,5.30
2023-05-03T11:58:32.369Z,5.88
2023-05-03T12:01:01.516Z,3.45
2023-05-03T12:03:33.466Z,5.90
2023-05-03T12:06:04.586Z,5.07
2023-05-03T12:08:38.778Z,4.30
2023-05-03T12:11:10.591Z,3.92
2023-05-03T12:13:41.377Z,4.68
2023-05-03T12:16:14.104Z,4.03
2023-05-03T12:18:51.808Z,4.95
2023-05-03T12:23:57.437Z,4.45
2023-05-03T12:26:27.567Z,3.75
2023-05-03T12:28:57.325Z,3.28
2023-05-03T12:31:29.018Z,4.15
2023-05-03T12:36:31.642Z,4.15
2023-05-03T12:39:02.346Z,5.47
2023-05-03T12:44:03.616Z,4.45
2023-05-03T12:46:35.127Z,4.07
2023-05-03T12:49:07.632Z,3.67
2023-05-03T12:51:42.041Z,5.28
2023-05-03T12:54:13.017Z,4.05
2023-05-03T12:56:44.881Z,3.88
2023-05-03T13:04:32.434Z,5.38
2023-05-03T13:07:13.574Z,5.20
2023-05-03T13:12:36.438Z,3.20
2023-05-03T13:15:06.313Z,3.65
2023-05-03T13:17:35.688Z,2.95
2023-05-03T13:20:07.406Z,3.22
2023-05-03T13:22:36.366Z,2.63
2023-05-03T13:25:07.364Z,1.95
2023-05-03T13:27:36.023Z,2.35
2023-05-03T13:30:05.887Z,2.92
2023-05-03T13:32:34.879Z,3.40
2023-05-03T13:35:05.626Z,2.85
2023-05-03T13:37:34.574Z,4.20
2023-05-03T13:40:03.526Z,3.75
2023-05-03T13:42:35.215Z,2.80
2023-05-03T13:45:04.867Z,3.00
2023-05-03T13:47:52.876Z,3.22
2023-05-03T13:50:22.462Z,3.42
2023-05-03T13:52:51.198Z,3.70
2023-05-03T13:55:19.945Z,3.03
2023-05-03T13:57:50.251Z,3.72
2023-05-03T14:00:20.956Z,3.60
2023-05-03T14:02:49.748Z,4.70
2023-05-03T14:05:19.824Z,3.58
2023-05-03T14:07:48.514Z,4.32
2023-05-03T14:10:17.377Z,4.97
2023-05-03T14:12:46.292Z,2.53
2023-05-03T14:15:17.133Z,2.42
2023-05-03T14:17:48.543Z,3.58
2023-05-03T14:20:17.866Z,4.13
2023-05-03T14:22:47.216Z,4.60
2023-05-03T14:25:15.864Z,2.53
2023-05-03T14:27:44.628Z,3.47
2023-05-03T14:30:16.008Z,2.58
2023-05-03T14:32:44.896Z,3.38
2023-05-03T14:35:14.253Z,2.53
2023-05-03T14:37:43.024Z,5.00
2023-05-03T14:40:13.096Z,3.20
2023-05-03T14:42:42.093Z,3.33
2023-05-03T14:45:14.854Z,3.78
2023-05-03T14:47:46.164Z,3.08
2023-05-03T14:50:16.183Z,5.15
2023-05-03T14:52:44.818Z,3.05
2023-05-03T14:55:13.851Z,2.97
2023-05-03T14:57:42.840Z,3.75
2023-05-03T15:00:14.578Z,3.13
2023-05-03T15:02:44.987Z,5.50
2023-05-03T15:05:14.459Z,3.50
2023-05-03T15:07:43.284Z,3.47
2023-05-03T15:10:12.762Z,2.80
2023-05-03T15:12:42.327Z,5.03
2023-05-03T15:15:12.241Z,5.20
2023-05-03T15:17:41.072Z,3.80
2023-05-03T15:20:13.993Z,3.92
2023-05-03T15:22:42.785Z,4.18
2023-05-03T15:25:11.926Z,5.40
2023-05-03T15:27:40.640Z,5.43
2023-05-03T15:30:12.311Z,5.30
2023-05-03T15:32:41.138Z,5.75
2023-05-03T15:35:12.100Z,4.80
2023-05-03T15:37:41.675Z,5.32
2023-05-03T15:40:13.517Z,4.85
2023-05-03T15:42:42.230Z,3.85
2023-05-03T15:45:11.116Z,3.42
2023-05-03T15:47:40.134Z,3.85
2023-05-03T15:50:12.361Z,4.28
2023-05-03T15:52:42.339Z,4.75
2023-05-03T15:55:12.048Z,4.47
2023-05-03T15:57:41.049Z,3.97
2023-05-03T16:00:11.995Z,4.22
2023-05-03T16:02:40.893Z,6.13
2023-05-03T16:05:11.958Z,4.50
2023-05-03T16:07:40.864Z,4.10
2023-05-03T16:10:11.158Z,3.15
2023-05-03T16:12:40.938Z,4.13
2023-05-03T16:15:12.705Z,4.32
2023-05-03T16:17:41.540Z,5.22
2023-05-03T16:20:13.083Z,5.30
2023-05-03T16:22:41.900Z,3.90
2023-05-03T16:25:11.349Z,5.68
2023-05-03T16:27:40.416Z,3.67
2023-05-03T16:30:10.620Z,5.55
2023-05-03T16:32:39.601Z,6.88
2023-05-03T16:35:08.829Z,4.30
2023-05-03T16:37:39.062Z,3.08
2023-05-03T16:40:11.588Z,3.63
2023-05-03T16:42:42.611Z,5.00
2023-05-03T16:45:11.762Z,5.78
2023-05-03T16:47:40.804Z,4.05
2023-05-03T16:50:10.554Z,3.90
2023-05-03T16:52:45.179Z,4.60
2023-05-03T16:55:14.621Z,6.55
2023-05-03T16:57:43.384Z,2.67
2023-05-03T17:00:14.527Z,2.88
2023-05-03T17:02:43.678Z,3.30
2023-05-03T17:05:13.768Z,3.75
2023-05-03T17:07:44.262Z,3.72
2023-05-03T17:10:13.194Z,2.80
2023-05-03T17:12:42.090Z,4.18
2023-05-03T17:15:11.880Z,4.03
2023-05-03T17:17:40.685Z,3.10
2023-05-03T17:20:12.963Z,4.70
2023-05-03T17:22:41.768Z,3.15
2023-05-03T17:25:12.470Z,3.20
2023-05-03T17:27:41.060Z,5.43
2023-05-03T17:30:11.001Z,3.72
2023-05-03T17:32:39.721Z,6.13
2023-05-03T17:35:11.262Z,2.20
2023-05-03T17:37:40.193Z,2.53
2023-05-03T17:40:09.933Z,3.00
2023-05-03T17:42:40.033Z,6.15
2023-05-03T17:45:10.092Z,4.38
2023-05-03T17:47:38.823Z,2.15
2023-05-03T17:50:08.727Z,3.63
2023-05-03T17:52:37.452Z,3.63
2023-05-03T17:55:06.974Z,3.13
2023-05-03T17:57:37.071Z,3.42
2023-05-03T18:00:11.439Z,2.78
2023-05-03T18:02:40.121Z,3.22
2023-05-03T18:05:09.369Z,3.50
2023-05-03T18:07:38.100Z,3.10
2023-05-03T18:10:07.962Z,4.90
2023-05-03T18:12:36.882Z,3.30
2023-05-03T18:15:09.129Z,3.33
2023-05-03T18:17:37.767Z,2.92
2023-05-03T18:20:07.685Z,4.15
2023-05-03T18:22:36.318Z,5.10
2023-05-03T18:25:07.549Z,4.20
2023-05-03T18:27:37.866Z,5.47
2023-05-03T18:30:10.554Z,4.35
2023-05-03T18:32:39.438Z,5.80
2023-05-03T18:35:08.655Z,3.50
2023-05-03T18:37:37.428Z,5.03
2023-05-03T18:40:07.095Z,4.93
2023-05-03T18:42:36.055Z,4.07
2023-05-03T18:45:05.067Z,7.25
2023-05-03T18:47:35.279Z,4.93
2023-05-03T18:50:04.766Z,6.40
2023-05-03T18:52:33.684Z,7.60
2023-05-03T18:55:02.557Z,4.88
2023-05-03T18:57:31.192Z,4.18
2023-05-03T19:00:01.485Z,3.95
2023-05-03T19:02:31.729Z,8.57
2023-05-03T19:05:02.189Z,4.50
2023-05-03T19:07:31.969Z,5.60
2023-05-03T19:10:01.138Z,7.50
2023-05-03T19:12:30.142Z,4.50
2023-05-03T19:14:58.831Z,7.00
2023-05-03T19:17:27.541Z,6.83
2023-05-03T19:19:56.304Z,5.70
2023-05-03T19:22:26.618Z,5.57
2023-05-03T19:24:55.343Z,4.93
2023-05-03T19:27:23.920Z,5.93
2023-05-03T19:29:55.688Z,6.90
2023-05-03T19:32:24.345Z,6.63
2023-05-03T19:34:53.010Z,5.83
2023-05-03T19:37:21.785Z,8.43
2023-05-03T19:39:55.790Z,7.17
2023-05-03T19:42:24.537Z,6.17
2023-05-03T19:44:53.219Z,6.60
2023-05-03T19:47:21.830Z,6.33
2023-05-03T19:49:50.448Z,6.67
2023-05-03T19:52:18.963Z,6.73
2023-05-03T19:54:47.650Z,7.27
2023-05-03T19:57:18.701Z,5.47
2023-05-03T19:59:49.422Z,8.07
2023-05-03T20:02:18.605Z,9.13
2023-05-03T20:04:48.366Z,7.40
2023-05-03T20:07:17.219Z,7.13
2023-05-03T20:09:45.931Z,7.83
2023-05-03T20:12:43.629Z,8.67
2023-05-03T20:15:13.006Z,7.77
2023-05-03T20:17:41.777Z,8.60
2023-05-03T20:20:12.189Z,6.30
2023-05-03T20:22:40.991Z,4.57
2023-05-03T20:25:14.494Z,5.47
2023-05-03T20:27:47.006Z,5.63
2023-05-03T20:30:15.807Z,8.47
2023-05-03T20:32:44.561Z,7.73
2023-05-03T20:35:13.559Z,6.27
2023-05-03T20:37:42.502Z,6.00
2023-05-03T20:40:14.265Z,4.90
2023-05-03T20:42:44.457Z,6.60
2023-05-03T20:45:14.711Z,6.50
2023-05-03T20:47:43.872Z,5.93
2023-05-03T20:50:13.046Z,8.53
2023-05-03T20:52:47.967Z,8.00
2023-05-03T20:55:16.873Z,7.50
2023-05-03T20:57:47.083Z,6.60
2023-05-03T21:00:17.025Z,9.33
2023-05-03T21:02:46.630Z,8.73
2023-05-03T21:05:15.379Z,11.40
2023-05-03T21:07:44.039Z,5.10
2023-05-03T21:10:12.689Z,6.53
2023-05-03T21:12:41.454Z,7.47
2023-05-03T21:15:12.844Z,7.27
2023-05-03T21:17:41.510Z,7.27
2023-05-03T21:20:11.642Z,5.43
2023-05-03T21:22:40.451Z,5.77
2023-05-03T21:25:10.160Z,6.77
2023-05-03T21:27:38.836Z,8.60
2023-05-03T21:30:08.884Z,7.20
2023-05-03T21:32:39.350Z,6.27
2023-05-03T21:35:09.636Z,5.73
2023-05-03T21:37:38.365Z,4.77
2023-05-03T21:40:08.734Z,7.37
2023-05-03T21:42:37.611Z,4.43
2023-05-03T21:45:07.300Z,7.73
2023-05-03T21:47:35.910Z,8.77
2023-05-03T21:50:08.058Z,7.33
2023-05-03T21:52:38.544Z,6.80
2023-05-03T21:55:08.465Z,6.40
2023-05-03T21:57:37.216Z,5.30
2023-05-03T22:00:07.670Z,6.43
2023-05-03T22:02:37.146Z,9.10
2023-05-03T22:05:07.801Z,5.97
2023-05-03T22:07:36.570Z,6.83
2023-05-03T22:10:05.888Z,7.07
2023-05-03T22:12:34.837Z,8.50
2023-05-03T22:15:04.204Z,7.93
2023-05-03T22:17:33.251Z,6.73
2023-05-03T22:20:02.032Z,9.63
2023-05-03T22:22:32.473Z,5.87
2023-05-03T22:25:02.574Z,10.30
2023-05-03T22:27:31.334Z,7.80
2023-05-03T22:30:00.163Z,8.13
2023-05-03T22:32:28.966Z,6.70
2023-05-03T22:34:57.653Z,9.57
2023-05-03T22:37:26.511Z,7.90
2023-05-03T22:39:56.560Z,7.00
2023-05-03T22:42:25.309Z,6.50
2023-05-03T22:44:55.814Z,8.40
2023-05-03T22:47:25.680Z,7.30
2023-05-03T22:49:54.566Z,8.13
2023-05-03T22:52:23.224Z,6.80
2023-05-03T22:54:58.178Z,8.93
2023-05-03T22:57:26.867Z,6.67
2023-05-03T22:59:55.518Z,8.70
2023-05-03T23:02:24.295Z,6.53
2023-05-03T23:04:53.234Z,7.07
2023-05-03T23:07:21.909Z,7.03
2023-05-03T23:09:50.817Z,12.10
2023-05-03T23:12:20.858Z,7.57
2023-05-03T23:14:49.595Z,8.67
2023-05-03T23:17:18.252Z,10.33
2023-05-03T23:19:46.821Z,6.17
2023-05-03T23:22:15.882Z,10.80
2023-05-03T23:24:44.471Z,9.23
2023-05-03T23:27:13.310Z,9.60
2023-05-03T23:29:44.315Z,9.40
2023-05-03T23:32:13.565Z,9.00
2023-05-03T23:34:42.853Z,7.63
2023-05-03T23:37:11.372Z,8.33
2023-05-03T23:39:44.484Z,9.93
2023-05-03T23:42:13.477Z,11.43
2023-05-03T23:44:54.364Z,11.27
2023-05-03T23:47:24.358Z,9.23
2023-05-03T23:49:53.417Z,10.17
2023-05-03T23:52:22.113Z,10.73
2023-05-03T23:54:50.853Z,9.83
2023-05-03T23:57:19.461Z,10.50
2023-05-03T23:59:49.840Z,8.87
